sensor_id;sensor_type;location;lat;lon;timestamp;P1;durP1;ratioP1;P2;durP2;ratioP2
20986;SDS011;10652;50.306;8.570;2023-09-18T00:01:38;5.45;;;3.75;;
20986;SDS011;10652;50.306;8.570;2023-09-18T00:05:41;5.88;;;3.60;;
20986;SDS011;10652;50.306;8.570;2023-09-18T00:09:43;4.70;;;3.38;;
20986;SDS011;10652;50.306;8.570;2023-09-18T00:13:45;6.10;;;3.33;;
20986;SDS011;10652;50.306;8.570;2023-09-18T00:17:47;6.43;;;3.63;;
20986;SDS011;10652;50.306;8.570;2023-09-18T00:21:50;6.10;;;3.30;;
20986;SDS011;10652;50.306;8.570;2023-09-18T00:25:54;8.38;;;4.00;;
20986;SDS011;10652;50.306;8.570;2023-09-18T00:29:56;6.35;;;3.80;;
20986;SDS011;10652;50.306;8.570;2023-09-18T00:33:58;4.68;;;3.30;;
20986;SDS011;10652;50.306;8.570;2023-09-18T00:38:00;15.70;;;8.50;;
20986;SDS011;10652;50.306;8.570;2023-09-18T00:42:05;17.92;;;9.88;;
20986;SDS011;10652;50.306;8.570;2023-09-18T00:46:07;10.45;;;5.93;;
20986;SDS011;10652;50.306;8.570;2023-09-18T00:50:10;5.65;;;4.18;;
20986;SDS011;10652;50.306;8.570;2023-09-18T00:54:15;6.10;;;4.20;;
20986;SDS011;10652;50.306;8.570;2023-09-18T00:58:20;7.50;;;4.07;;
20986;SDS011;10652;50.306;8.570;2023-09-18T01:02:23;5.55;;;3.20;;
20986;SDS011;10652;50.306;8.570;2023-09-18T01:06:26;5.05;;;3.30;;
20986;SDS011;10652;50.306;8.570;2023-09-18T01:10:36;4.18;;;3.10;;
20986;SDS011;10652;50.306;8.570;2023-09-18T01:14:57;5.13;;;3.30;;
20986;SDS011;10652;50.306;8.570;2023-09-18T01:19:13;6.07;;;3.60;;
20986;SDS011;10652;50.306;8.570;2023-09-18T01:23:15;4.80;;;3.20;;
20986;SDS011;10652;50.306;8.570;2023-09-18T01:27:17;7.43;;;3.60;;
20986;SDS011;10652;50.306;8.570;2023-09-18T01:31:20;5.50;;;3.53;;
20986;SDS011;10652;50.306;8.570;2023-09-18T01:35:22;4.10;;;3.10;;
20986;SDS011;10652;50.306;8.570;2023-09-18T01:39:31;5.20;;;3.00;;
20986;SDS011;10652;50.306;8.570;2023-09-18T01:43:35;4.25;;;3.20;;
20986;SDS011;10652;50.306;8.570;2023-09-18T01:47:38;7.40;;;3.63;;
20986;SDS011;10652;50.306;8.570;2023-09-18T01:51:40;6.57;;;3.42;;
20986;SDS011;10652;50.306;8.570;2023-09-18T01:55:42;6.60;;;3.70;;
20986;SDS011;10652;50.306;8.570;2023-09-18T01:59:45;5.63;;;3.40;;
20986;SDS011;10652;50.306;8.570;2023-09-18T02:03:48;3.90;;;3.50;;
20986;SDS011;10652;50.306;8.570;2023-09-18T02:08:10;3.53;;;3.20;;
20986;SDS011;10652;50.306;8.570;2023-09-18T02:12:12;4.05;;;3.28;;
20986;SDS011;10652;50.306;8.570;2023-09-18T02:16:19;4.88;;;3.25;;
20986;SDS011;10652;50.306;8.570;2023-09-18T02:20:26;6.50;;;3.15;;
20986;SDS011;10652;50.306;8.570;2023-09-18T02:24:28;4.75;;;3.40;;
20986;SDS011;10652;50.306;8.570;2023-09-18T02:28:30;5.25;;;3.70;;
20986;SDS011;10652;50.306;8.570;2023-09-18T02:32:33;4.57;;;3.25;;
20986;SDS011;10652;50.306;8.570;2023-09-18T02:36:37;4.38;;;3.38;;
20986;SDS011;10652;50.306;8.570;2023-09-18T02:40:39;5.85;;;3.03;;
20986;SDS011;10652;50.306;8.570;2023-09-18T02:44:41;4.65;;;3.03;;
20986;SDS011;10652;50.306;8.570;2023-09-18T02:48:44;3.55;;;3.08;;
20986;SDS011;10652;50.306;8.570;2023-09-18T02:52:46;4.75;;;3.25;;
20986;SDS011;10652;50.306;8.570;2023-09-18T02:56:48;5.13;;;2.90;;
20986;SDS011;10652;50.306;8.570;2023-09-18T03:00:51;5.03;;;3.20;;
20986;SDS011;10652;50.306;8.570;2023-09-18T03:04:54;5.90;;;3.10;;
20986;SDS011;10652;50.306;8.570;2023-09-18T03:08:56;4.53;;;2.97;;
20986;SDS011;10652;50.306;8.570;2023-09-18T03:12:58;5.43;;;3.05;;
20986;SDS011;10652;50.306;8.570;2023-09-18T03:17:03;4.22;;;3.00;;
20986;SDS011;10652;50.306;8.570;2023-09-18T03:21:06;5.22;;;3.38;;
20986;SDS011;10652;50.306;8.570;2023-09-18T03:25:08;5.72;;;3.38;;
20986;SDS011;10652;50.306;8.570;2023-09-18T03:29:10;6.30;;;3.22;;
20986;SDS011;10652;50.306;8.570;2023-09-18T03:33:12;5.65;;;3.40;;
20986;SDS011;10652;50.306;8.570;2023-09-18T03:37:15;5.22;;;3.00;;
20986;SDS011;10652;50.306;8.570;2023-09-18T03:41:17;5.60;;;3.50;;
20986;SDS011;10652;50.306;8.570;2023-09-18T03:45:19;8.68;;;3.33;;
20986;SDS011;10652;50.306;8.570;2023-09-18T03:49:23;6.13;;;3.42;;
20986;SDS011;10652;50.306;8.570;2023-09-18T03:53:26;5.00;;;3.17;;
20986;SDS011;10652;50.306;8.570;2023-09-18T03:57:29;6.80;;;3.00;;
20986;SDS011;10652;50.306;8.570;2023-09-18T04:01:31;6.25;;;3.08;;
20986;SDS011;10652;50.306;8.570;2023-09-18T04:05:33;5.18;;;3.08;;
20986;SDS011;10652;50.306;8.570;2023-09-18T04:09:35;5.18;;;2.97;;
20986;SDS011;10652;50.306;8.570;2023-09-18T04:13:37;7.13;;;3.03;;
20986;SDS011;10652;50.306;8.570;2023-09-18T04:17:39;7.60;;;2.88;;
20986;SDS011;10652;50.306;8.570;2023-09-18T04:21:42;5.88;;;2.85;;
20986;SDS011;10652;50.306;8.570;2023-09-18T04:25:44;6.18;;;2.58;;
20986;SDS011;10652;50.306;8.570;2023-09-18T04:29:47;6.78;;;2.90;;
20986;SDS011;10652;50.306;8.570;2023-09-18T04:33:49;5.75;;;2.63;;
20986;SDS011;10652;50.306;8.570;2023-09-18T04:37:54;8.82;;;3.05;;
20986;SDS011;10652;50.306;8.570;2023-09-18T04:41:58;8.18;;;3.42;;
20986;SDS011;10652;50.306;8.570;2023-09-18T04:46:01;7.05;;;3.05;;
20986;SDS011;10652;50.306;8.570;2023-09-18T04:50:09;5.88;;;3.47;;
20986;SDS011;10652;50.306;8.570;2023-09-18T04:54:15;7.43;;;3.67;;
20986;SDS011;10652;50.306;8.570;2023-09-18T04:58:17;4.10;;;3.13;;
20986;SDS011;10652;50.306;8.570;2023-09-18T05:02:20;6.50;;;3.30;;
20986;SDS011;10652;50.306;8.570;2023-09-18T05:06:22;6.68;;;3.67;;
20986;SDS011;10652;50.306;8.570;2023-09-18T05:10:24;8.57;;;4.25;;
20986;SDS011;10652;50.306;8.570;2023-09-18T05:14:27;5.95;;;3.42;;
20986;SDS011;10652;50.306;8.570;2023-09-18T05:18:29;7.60;;;3.88;;
20986;SDS011;10652;50.306;8.570;2023-09-18T05:22:31;6.28;;;4.25;;
20986;SDS011;10652;50.306;8.570;2023-09-18T05:26:34;7.75;;;4.07;;
20986;SDS011;10652;50.306;8.570;2023-09-18T05:30:36;6.97;;;3.55;;
20986;SDS011;10652;50.306;8.570;2023-09-18T05:34:40;8.10;;;3.60;;
20986;SDS011;10652;50.306;8.570;2023-09-18T05:38:43;8.02;;;3.83;;
20986;SDS011;10652;50.306;8.570;2023-09-18T05:42:45;5.85;;;4.15;;
20986;SDS011;10652;50.306;8.570;2023-09-18T05:46:47;7.07;;;4.10;;
20986;SDS011;10652;50.306;8.570;2023-09-18T05:50:50;6.75;;;4.47;;
20986;SDS011;10652;50.306;8.570;2023-09-18T05:54:52;5.47;;;4.03;;
20986;SDS011;10652;50.306;8.570;2023-09-18T05:58:54;7.03;;;3.90;;
20986;SDS011;10652;50.306;8.570;2023-09-18T06:02:57;7.13;;;3.40;;
20986;SDS011;10652;50.306;8.570;2023-09-18T06:07:00;7.47;;;3.10;;
20986;SDS011;10652;50.306;8.570;2023-09-18T06:11:02;7.80;;;2.60;;
20986;SDS011;10652;50.306;8.570;2023-09-18T06:15:05;7.63;;;2.65;;
20986;SDS011;10652;50.306;8.570;2023-09-18T06:19:10;8.50;;;2.60;;
20986;SDS011;10652;50.306;8.570;2023-09-18T06:23:12;6.63;;;2.75;;
20986;SDS011;10652;50.306;8.570;2023-09-18T06:27:14;9.88;;;2.60;;
20986;SDS011;10652;50.306;8.570;2023-09-18T06:31:16;6.75;;;2.38;;
20986;SDS011;10652;50.306;8.570;2023-09-18T06:35:18;7.25;;;2.42;;
20986;SDS011;10652;50.306;8.570;2023-09-18T06:39:21;6.90;;;2.40;;
20986;SDS011;10652;50.306;8.570;2023-09-18T06:43:25;3.03;;;2.22;;
20986;SDS011;10652;50.306;8.570;2023-09-18T06:47:27;7.43;;;2.40;;
20986;SDS011;10652;50.306;8.570;2023-09-18T06:51:29;6.20;;;2.25;;
20986;SDS011;10652;50.306;8.570;2023-09-18T06:55:37;9.63;;;2.50;;
20986;SDS011;10652;50.306;8.570;2023-09-18T06:59:40;6.80;;;2.17;;
20986;SDS011;10652;50.306;8.570;2023-09-18T07:03:42;6.38;;;2.58;;
20986;SDS011;10652;50.306;8.570;2023-09-18T07:07:44;8.65;;;2.38;;
20986;SDS011;10652;50.306;8.570;2023-09-18T07:11:46;6.43;;;2.70;;
20986;SDS011;10652;50.306;8.570;2023-09-18T07:15:51;9.70;;;2.60;;
20986;SDS011;10652;50.306;8.570;2023-09-18T07:19:53;14.50;;;3.22;;
20986;SDS011;10652;50.306;8.570;2023-09-18T07:23:55;18.05;;;3.08;;
20986;SDS011;10652;50.306;8.570;2023-09-18T07:27:58;11.77;;;3.53;;
20986;SDS011;10652;50.306;8.570;2023-09-18T07:32:00;21.02;;;3.75;;
20986;SDS011;10652;50.306;8.570;2023-09-18T07:36:03;12.45;;;3.55;;
20986;SDS011;10652;50.306;8.570;2023-09-18T07:40:06;15.98;;;3.72;;
20986;SDS011;10652;50.306;8.570;2023-09-18T07:44:08;16.88;;;3.85;;
20986;SDS011;10652;50.306;8.570;2023-09-18T07:48:10;10.52;;;3.00;;
20986;SDS011;10652;50.306;8.570;2023-09-18T07:52:13;10.60;;;2.92;;
20986;SDS011;10652;50.306;8.570;2023-09-18T07:56:15;10.00;;;2.60;;
20986;SDS011;10652;50.306;8.570;2023-09-18T08:00:17;10.82;;;2.50;;
20986;SDS011;10652;50.306;8.570;2023-09-18T08:04:20;6.95;;;2.08;;
20986;SDS011;10652;50.306;8.570;2023-09-18T08:08:23;7.32;;;2.10;;
20986;SDS011;10652;50.306;8.570;2023-09-18T08:12:26;6.97;;;1.85;;
20986;SDS011;10652;50.306;8.570;2023-09-18T08:16:28;7.43;;;1.77;;
20986;SDS011;10652;50.306;8.570;2023-09-18T08:20:31;7.97;;;2.20;;
20986;SDS011;10652;50.306;8.570;2023-09-18T08:24:34;7.00;;;1.95;;
20986;SDS011;10652;50.306;8.570;2023-09-18T08:28:36;4.80;;;1.80;;
20986;SDS011;10652;50.306;8.570;2023-09-18T08:32:45;7.45;;;2.20;;
20986;SDS011;10652;50.306;8.570;2023-09-18T08:36:47;10.73;;;2.13;;
20986;SDS011;10652;50.306;8.570;2023-09-18T08:40:49;10.00;;;2.30;;
20986;SDS011;10652;50.306;8.570;2023-09-18T08:44:53;8.98;;;2.28;;
20986;SDS011;10652;50.306;8.570;2023-09-18T08:48:57;9.75;;;2.40;;
20986;SDS011;10652;50.306;8.570;2023-09-18T08:53:00;10.43;;;2.58;;
20986;SDS011;10652;50.306;8.570;2023-09-18T08:57:07;11.07;;;2.30;;
20986;SDS011;10652;50.306;8.570;2023-09-18T09:01:10;8.52;;;2.30;;
20986;SDS011;10652;50.306;8.570;2023-09-18T09:05:13;6.05;;;1.80;;
20986;SDS011;10652;50.306;8.570;2023-09-18T09:09:15;6.13;;;1.40;;
20986;SDS011;10652;50.306;8.570;2023-09-18T09:13:17;11.02;;;2.28;;
20986;SDS011;10652;50.306;8.570;2023-09-18T09:17:39;7.75;;;1.75;;
20986;SDS011;10652;50.306;8.570;2023-09-18T09:21:42;3.72;;;1.35;;
20986;SDS011;10652;50.306;8.570;2023-09-18T09:25:45;4.40;;;1.35;;
20986;SDS011;10652;50.306;8.570;2023-09-18T09:30:00;6.10;;;1.70;;
20986;SDS011;10652;50.306;8.570;2023-09-18T09:34:02;6.28;;;1.55;;
20986;SDS011;10652;50.306;8.570;2023-09-18T09:38:07;8.48;;;1.48;;
20986;SDS011;10652;50.306;8.570;2023-09-18T09:42:11;6.38;;;1.45;;
20986;SDS011;10652;50.306;8.570;2023-09-18T09:46:15;8.77;;;1.77;;
20986;SDS011;10652;50.306;8.570;2023-09-18T09:50:23;4.82;;;1.30;;
20986;SDS011;10652;50.306;8.570;2023-09-18T09:54:33;5.00;;;1.50;;
20986;SDS011;10652;50.306;8.570;2023-09-18T09:58:42;8.10;;;1.63;;
20986;SDS011;10652;50.306;8.570;2023-09-18T10:02:45;4.45;;;1.20;;
20986;SDS011;10652;50.306;8.570;2023-09-18T10:06:52;7.15;;;1.45;;
20986;SDS011;10652;50.306;8.570;2023-09-18T10:11:00;4.32;;;1.17;;
20986;SDS011;10652;50.306;8.570;2023-09-18T10:15:08;4.22;;;1.00;;
20986;SDS011;10652;50.306;8.570;2023-09-18T10:19:27;4.25;;;1.10;;
20986;SDS011;10652;50.306;8.570;2023-09-18T10:23:44;3.88;;;1.05;;
20986;SDS011;10652;50.306;8.570;2023-09-18T10:27:55;3.45;;;0.98;;
20986;SDS011;10652;50.306;8.570;2023-09-18T10:32:05;3.35;;;1.35;;
20986;SDS011;10652;50.306;8.570;2023-09-18T10:36:11;2.88;;;1.00;;
20986;SDS011;10652;50.306;8.570;2023-09-18T10:40:14;4.53;;;1.08;;
20986;SDS011;10652;50.306;8.570;2023-09-18T10:44:17;3.50;;;0.98;;
20986;SDS011;10652;50.306;8.570;2023-09-18T10:48:20;6.78;;;1.10;;
20986;SDS011;10652;50.306;8.570;2023-09-18T10:52:24;2.53;;;0.90;;
20986;SDS011;10652;50.306;8.570;2023-09-18T10:56:26;4.53;;;0.93;;
20986;SDS011;10652;50.306;8.570;2023-09-18T11:00:29;2.50;;;0.90;;
20986;SDS011;10652;50.306;8.570;2023-09-18T11:04:33;2.90;;;1.10;;
20986;SDS011;10652;50.306;8.570;2023-09-18T11:08:51;5.07;;;0.80;;
20986;SDS011;10652;50.306;8.570;2023-09-18T11:12:55;4.53;;;1.02;;
20986;SDS011;10652;50.306;8.570;2023-09-18T11:21:30;2.60;;;1.20;;
20986;SDS011;10652;50.306;8.570;2023-09-18T11:29:36;7.32;;;1.77;;
20986;SDS011;10652;50.306;8.570;2023-09-18T11:33:39;2.65;;;1.17;;
20986;SDS011;10652;50.306;8.570;2023-09-18T11:37:43;2.53;;;1.33;;
20986;SDS011;10652;50.306;8.570;2023-09-18T11:41:45;4.63;;;1.52;;
20986;SDS011;10652;50.306;8.570;2023-09-18T11:45:51;2.63;;;1.42;;
20986;SDS011;10652;50.306;8.570;2023-09-18T11:49:56;5.45;;;1.50;;
20986;SDS011;10652;50.306;8.570;2023-09-18T11:54:00;6.32;;;1.83;;
20986;SDS011;10652;50.306;8.570;2023-09-18T11:58:05;15.77;;;2.40;;
20986;SDS011;10652;50.306;8.570;2023-09-18T12:02:07;14.52;;;2.70;;
20986;SDS011;10652;50.306;8.570;2023-09-18T12:06:10;16.52;;;2.42;;
20986;SDS011;10652;50.306;8.570;2023-09-18T12:10:15;12.57;;;2.45;;
20986;SDS011;10652;50.306;8.570;2023-09-18T12:14:22;4.43;;;1.88;;
20986;SDS011;10652;50.306;8.570;2023-09-18T12:18:25;8.30;;;1.88;;
20986;SDS011;10652;50.306;8.570;2023-09-18T12:22:31;21.75;;;3.13;;
20986;SDS011;10652;50.306;8.570;2023-09-18T12:26:35;8.48;;;2.15;;
20986;SDS011;10652;50.306;8.570;2023-09-18T12:30:38;8.13;;;2.30;;
20986;SDS011;10652;50.306;8.570;2023-09-18T12:34:42;4.35;;;1.90;;
20986;SDS011;10652;50.306;8.570;2023-09-18T12:38:54;10.88;;;2.35;;
20986;SDS011;10652;50.306;8.570;2023-09-18T12:42:57;7.53;;;2.10;;
20986;SDS011;10652;50.306;8.570;2023-09-18T12:47:00;12.13;;;2.35;;
20986;SDS011;10652;50.306;8.570;2023-09-18T12:51:03;9.23;;;2.25;;
20986;SDS011;10652;50.306;8.570;2023-09-18T12:55:07;6.88;;;1.88;;
20986;SDS011;10652;50.306;8.570;2023-09-18T12:59:10;6.18;;;1.80;;
20986;SDS011;10652;50.306;8.570;2023-09-18T13:03:19;7.78;;;2.20;;
20986;SDS011;10652;50.306;8.570;2023-09-18T13:07:22;12.68;;;3.13;;
20986;SDS011;10652;50.306;8.570;2023-09-18T13:11:25;8.00;;;2.70;;
20986;SDS011;10652;50.306;8.570;2023-09-18T13:15:29;12.18;;;2.67;;
20986;SDS011;10652;50.306;8.570;2023-09-18T13:19:32;7.05;;;1.98;;
20986;SDS011;10652;50.306;8.570;2023-09-18T13:23:34;5.47;;;1.60;;
20986;SDS011;10652;50.306;8.570;2023-09-18T13:27:37;7.78;;;2.15;;
20986;SDS011;10652;50.306;8.570;2023-09-18T13:31:39;7.47;;;2.00;;
20986;SDS011;10652;50.306;8.570;2023-09-18T13:35:42;7.43;;;1.83;;
20986;SDS011;10652;50.306;8.570;2023-09-18T13:39:46;10.70;;;2.30;;
20986;SDS011;10652;50.306;8.570;2023-09-18T13:43:49;5.38;;;1.50;;
20986;SDS011;10652;50.306;8.570;2023-09-18T13:47:51;3.83;;;1.20;;
20986;SDS011;10652;50.306;8.570;2023-09-18T13:51:53;7.38;;;1.85;;
20986;SDS011;10652;50.306;8.570;2023-09-18T13:55:56;5.72;;;1.40;;
20986;SDS011;10652;50.306;8.570;2023-09-18T13:59:59;6.07;;;1.35;;
20986;SDS011;10652;50.306;8.570;2023-09-18T14:04:01;9.88;;;1.85;;
20986;SDS011;10652;50.306;8.570;2023-09-18T14:08:04;7.95;;;2.13;;
20986;SDS011;10652;50.306;8.570;2023-09-18T14:12:06;2.92;;;1.10;;
20986;SDS011;10652;50.306;8.570;2023-09-18T14:16:09;3.42;;;1.40;;
20986;SDS011;10652;50.306;8.570;2023-09-18T14:20:12;2.75;;;1.20;;
20986;SDS011;10652;50.306;8.570;2023-09-18T14:24:15;3.45;;;1.00;;
20986;SDS011;10652;50.306;8.570;2023-09-18T14:28:24;5.93;;;1.55;;
20986;SDS011;10652;50.306;8.570;2023-09-18T14:32:26;3.20;;;1.08;;
20986;SDS011;10652;50.306;8.570;2023-09-18T14:36:29;3.15;;;1.17;;
20986;SDS011;10652;50.306;8.570;2023-09-18T14:40:32;4.63;;;1.10;;
20986;SDS011;10652;50.306;8.570;2023-09-18T14:44:34;5.03;;;1.20;;
20986;SDS011;10652;50.306;8.570;2023-09-18T14:48:36;4.13;;;1.17;;
20986;SDS011;10652;50.306;8.570;2023-09-18T14:52:38;4.38;;;1.25;;
20986;SDS011;10652;50.306;8.570;2023-09-18T14:56:40;3.90;;;1.20;;
20986;SDS011;10652;50.306;8.570;2023-09-18T15:00:43;2.38;;;1.10;;
20986;SDS011;10652;50.306;8.570;2023-09-18T15:04:45;3.63;;;1.20;;
20986;SDS011;10652;50.306;8.570;2023-09-18T15:08:49;3.17;;;1.20;;
20986;SDS011;10652;50.306;8.570;2023-09-18T15:12:51;3.53;;;1.10;;
20986;SDS011;10652;50.306;8.570;2023-09-18T15:16:53;3.53;;;1.20;;
20986;SDS011;10652;50.306;8.570;2023-09-18T15:20:57;3.03;;;1.00;;
20986;SDS011;10652;50.306;8.570;2023-09-18T15:24:59;2.22;;;1.15;;
20986;SDS011;10652;50.306;8.570;2023-09-18T15:29:03;2.60;;;1.13;;
20986;SDS011;10652;50.306;8.570;2023-09-18T15:33:05;1.85;;;0.98;;
20986;SDS011;10652;50.306;8.570;2023-09-18T15:37:08;3.92;;;1.20;;
20986;SDS011;10652;50.306;8.570;2023-09-18T15:41:13;2.65;;;1.20;;
20986;SDS011;10652;50.306;8.570;2023-09-18T15:45:16;5.00;;;1.40;;
20986;SDS011;10652;50.306;8.570;2023-09-18T15:49:18;7.25;;;1.35;;
20986;SDS011;10652;50.306;8.570;2023-09-18T15:53:20;4.28;;;1.20;;
20986;SDS011;10652;50.306;8.570;2023-09-18T15:57:22;3.65;;;1.20;;
20986;SDS011;10652;50.306;8.570;2023-09-18T16:01:25;6.20;;;1.70;;
20986;SDS011;10652;50.306;8.570;2023-09-18T16:05:28;2.28;;;1.13;;
20986;SDS011;10652;50.306;8.570;2023-09-18T16:09:30;5.90;;;1.15;;
20986;SDS011;10652;50.306;8.570;2023-09-18T16:13:32;2.90;;;1.33;;
20986;SDS011;10652;50.306;8.570;2023-09-18T16:17:34;2.35;;;1.20;;
20986;SDS011;10652;50.306;8.570;2023-09-18T16:21:37;6.78;;;1.40;;
20986;SDS011;10652;50.306;8.570;2023-09-18T16:25:39;4.90;;;1.20;;
20986;SDS011;10652;50.306;8.570;2023-09-18T16:29:41;3.67;;;1.25;;
20986;SDS011;10652;50.306;8.570;2023-09-18T16:33:43;6.50;;;1.40;;
20986;SDS011;10652;50.306;8.570;2023-09-18T16:37:45;2.35;;;1.38;;
20986;SDS011;10652;50.306;8.570;2023-09-18T16:41:48;3.28;;;1.35;;
20986;SDS011;10652;50.306;8.570;2023-09-18T16:45:50;4.53;;;1.30;;
20986;SDS011;10652;50.306;8.570;2023-09-18T16:49:52;2.03;;;1.20;;
20986;SDS011;10652;50.306;8.570;2023-09-18T16:53:54;3.30;;;1.20;;
20986;SDS011;10652;50.306;8.570;2023-09-18T16:57:57;2.38;;;1.40;;
20986;SDS011;10652;50.306;8.570;2023-09-18T17:01:59;2.75;;;1.30;;
20986;SDS011;10652;50.306;8.570;2023-09-18T17:06:03;4.05;;;1.30;;
20986;SDS011;10652;50.306;8.570;2023-09-18T17:10:05;3.50;;;1.70;;
20986;SDS011;10652;50.306;8.570;2023-09-18T17:14:07;3.88;;;1.20;;
20986;SDS011;10652;50.306;8.570;2023-09-18T17:18:09;6.10;;;1.30;;
20986;SDS011;10652;50.306;8.570;2023-09-18T17:22:13;3.60;;;1.42;;
20986;SDS011;10652;50.306;8.570;2023-09-18T17:26:15;3.60;;;1.48;;
20986;SDS011;10652;50.306;8.570;2023-09-18T17:30:17;4.65;;;1.85;;
20986;SDS011;10652;50.306;8.570;2023-09-18T17:34:19;6.00;;;1.60;;
20986;SDS011;10652;50.306;8.570;2023-09-18T17:38:21;3.28;;;1.52;;
20986;SDS011;10652;50.306;8.570;2023-09-18T17:42:23;3.78;;;1.30;;
20986;SDS011;10652;50.306;8.570;2023-09-18T17:46:25;2.97;;;1.30;;
20986;SDS011;10652;50.306;8.570;2023-09-18T17:50:28;5.45;;;1.60;;
20986;SDS011;10652;50.306;8.570;2023-09-18T17:54:30;2.78;;;1.20;;
20986;SDS011;10652;50.306;8.570;2023-09-18T17:58:32;2.92;;;1.23;;
20986;SDS011;10652;50.306;8.570;2023-09-18T18:02:34;3.33;;;1.52;;
20986;SDS011;10652;50.306;8.570;2023-09-18T18:06:38;3.92;;;1.45;;
20986;SDS011;10652;50.306;8.570;2023-09-18T18:10:43;2.97;;;1.35;;
20986;SDS011;10652;50.306;8.570;2023-09-18T18:14:45;7.00;;;1.52;;
20986;SDS011;10652;50.306;8.570;2023-09-18T18:18:50;2.88;;;1.40;;
20986;SDS011;10652;50.306;8.570;2023-09-18T18:22:52;3.78;;;1.80;;
20986;SDS011;10652;50.306;8.570;2023-09-18T18:26:56;2.85;;;1.48;;
20986;SDS011;10652;50.306;8.570;2023-09-18T18:30:58;3.65;;;1.33;;
20986;SDS011;10652;50.306;8.570;2023-09-18T18:35:00;4.47;;;1.70;;
20986;SDS011;10652;50.306;8.570;2023-09-18T18:39:03;6.32;;;1.67;;
20986;SDS011;10652;50.306;8.570;2023-09-18T18:43:06;4.13;;;1.20;;
20986;SDS011;10652;50.306;8.570;2023-09-18T18:47:09;3.50;;;1.40;;
20986;SDS011;10652;50.306;8.570;2023-09-18T18:51:11;2.10;;;1.10;;
20986;SDS011;10652;50.306;8.570;2023-09-18T18:55:20;3.25;;;1.20;;
20986;SDS011;10652;50.306;8.570;2023-09-18T18:59:24;3.90;;;1.05;;
20986;SDS011;10652;50.306;8.570;2023-09-18T19:03:28;1.60;;;1.00;;
20986;SDS011;10652;50.306;8.570;2023-09-18T19:07:31;2.33;;;1.10;;
20986;SDS011;10652;50.306;8.570;2023-09-18T19:11:33;3.03;;;1.05;;
20986;SDS011;10652;50.306;8.570;2023-09-18T19:15:35;2.30;;;0.90;;
20986;SDS011;10652;50.306;8.570;2023-09-18T19:19:37;2.72;;;1.00;;
20986;SDS011;10652;50.306;8.570;2023-09-18T19:23:39;2.45;;;1.15;;
20986;SDS011;10652;50.306;8.570;2023-09-18T19:27:44;2.63;;;1.13;;
20986;SDS011;10652;50.306;8.570;2023-09-18T19:31:46;2.15;;;1.15;;
20986;SDS011;10652;50.306;8.570;2023-09-18T19:35:50;3.85;;;1.20;;
20986;SDS011;10652;50.306;8.570;2023-09-18T19:39:52;3.50;;;1.20;;
20986;SDS011;10652;50.306;8.570;2023-09-18T19:43:54;2.33;;;1.10;;
20986;SDS011;10652;50.306;8.570;2023-09-18T19:47:57;2.45;;;1.10;;
20986;SDS011;10652;50.306;8.570;2023-09-18T19:52:00;4.55;;;1.13;;
20986;SDS011;10652;50.306;8.570;2023-09-18T19:56:02;3.25;;;1.30;;
20986;SDS011;10652;50.306;8.570;2023-09-18T20:00:06;2.72;;;1.10;;
20986;SDS011;10652;50.306;8.570;2023-09-18T20:04:14;4.93;;;0.95;;
20986;SDS011;10652;50.306;8.570;2023-09-18T20:08:18;2.75;;;1.10;;
20986;SDS011;10652;50.306;8.570;2023-09-18T20:12:21;2.60;;;1.10;;
20986;SDS011;10652;50.306;8.570;2023-09-18T20:16:24;6.05;;;1.10;;
20986;SDS011;10652;50.306;8.570;2023-09-18T20:20:26;1.73;;;0.98;;
20986;SDS011;10652;50.306;8.570;2023-09-18T20:24:28;5.32;;;1.25;;
20986;SDS011;10652;50.306;8.570;2023-09-18T20:28:31;3.67;;;1.20;;
20986;SDS011;10652;50.306;8.570;2023-09-18T20:32:34;3.47;;;1.00;;
20986;SDS011;10652;50.306;8.570;2023-09-18T20:36:37;3.35;;;1.20;;
20986;SDS011;10652;50.306;8.570;2023-09-18T20:40:40;5.30;;;1.52;;
20986;SDS011;10652;50.306;8.570;2023-09-18T20:44:44;2.60;;;1.25;;
20986;SDS011;10652;50.306;8.570;2023-09-18T20:48:47;5.03;;;1.33;;
20986;SDS011;10652;50.306;8.570;2023-09-18T20:52:49;3.58;;;1.23;;
20986;SDS011;10652;50.306;8.570;2023-09-18T20:56:51;1.95;;;1.20;;
20986;SDS011;10652;50.306;8.570;2023-09-18T21:00:53;2.63;;;1.30;;
20986;SDS011;10652;50.306;8.570;2023-09-18T21:04:55;3.03;;;1.30;;
20986;SDS011;10652;50.306;8.570;2023-09-18T21:08:58;4.30;;;1.23;;
20986;SDS011;10652;50.306;8.570;2023-09-18T21:13:00;4.05;;;1.00;;
20986;SDS011;10652;50.306;8.570;2023-09-18T21:17:02;1.42;;;0.90;;
20986;SDS011;10652;50.306;8.570;2023-09-18T21:21:05;2.65;;;0.70;;
20986;SDS011;10652;50.306;8.570;2023-09-18T21:25:17;1.45;;;0.60;;
20986;SDS011;10652;50.306;8.570;2023-09-18T21:29:19;1.52;;;0.80;;
20986;SDS011;10652;50.306;8.570;2023-09-18T21:33:27;1.73;;;0.70;;
20986;SDS011;10652;50.306;8.570;2023-09-18T21:37:30;2.22;;;0.60;;
20986;SDS011;10652;50.306;8.570;2023-09-18T21:41:32;1.40;;;0.65;;
20986;SDS011;10652;50.306;8.570;2023-09-18T21:45:35;1.00;;;0.65;;
20986;SDS011;10652;50.306;8.570;2023-09-18T21:49:38;2.45;;;0.75;;
20986;SDS011;10652;50.306;8.570;2023-09-18T21:53:41;2.10;;;0.70;;
20986;SDS011;10652;50.306;8.570;2023-09-18T21:57:44;2.35;;;0.95;;
20986;SDS011;10652;50.306;8.570;2023-09-18T22:01:46;2.03;;;0.60;;
20986;SDS011;10652;50.306;8.570;2023-09-18T22:05:48;3.55;;;0.82;;
20986;SDS011;10652;50.306;8.570;2023-09-18T22:09:50;2.60;;;0.93;;
20986;SDS011;10652;50.306;8.570;2023-09-18T22:13:54;3.67;;;1.00;;
20986;SDS011;10652;50.306;8.570;2023-09-18T22:17:56;3.15;;;1.40;;
20986;SDS011;10652;50.306;8.570;2023-09-18T22:21:58;2.50;;;0.82;;
20986;SDS011;10652;50.306;8.570;2023-09-18T22:26:00;2.80;;;1.00;;
20986;SDS011;10652;50.306;8.570;2023-09-18T22:30:05;2.20;;;0.80;;
20986;SDS011;10652;50.306;8.570;2023-09-18T22:34:08;2.72;;;0.80;;
20986;SDS011;10652;50.306;8.570;2023-09-18T22:55:43;2.20;;;1.00;;
20986;SDS011;10652;50.306;8.570;2023-09-18T22:59:46;3.03;;;0.85;;
20986;SDS011;10652;50.306;8.570;2023-09-18T23:03:51;1.70;;;1.00;;
20986;SDS011;10652;50.306;8.570;2023-09-18T23:07:54;1.15;;;0.80;;
20986;SDS011;10652;50.306;8.570;2023-09-18T23:12:01;4.00;;;0.98;;
20986;SDS011;10652;50.306;8.570;2023-09-18T23:16:07;2.53;;;1.05;;
20986;SDS011;10652;50.306;8.570;2023-09-18T23:20:10;2.63;;;0.95;;
20986;SDS011;10652;50.306;8.570;2023-09-18T23:24:13;3.17;;;1.10;;
20986;SDS011;10652;50.306;8.570;2023-09-18T23:28:16;2.13;;;1.02;;
20986;SDS011;10652;50.306;8.570;2023-09-18T23:32:18;2.13;;;1.15;;
20986;SDS011;10652;50.306;8.570;2023-09-18T23:36:21;1.70;;;1.00;;
20986;SDS011;10652;50.306;8.570;2023-09-18T23:40:24;3.40;;;1.35;;
20986;SDS011;10652;50.306;8.570;2023-09-18T23:44:30;1.90;;;0.90;;
20986;SDS011;10652;50.306;8.570;2023-09-18T23:48:34;1.75;;;1.05;;
20986;SDS011;10652;50.306;8.570;2023-09-18T23:52:36;1.58;;;1.00;;
20986;SDS011;10652;50.306;8.570;2023-09-18T23:56:39;1.30;;;1.10;;
